Create Custom Reports and Graphics: Custom Report

Latest Observations

MWA Stations

15 Minute Data | America/Los_Angeles
as of 5/9/26 6:39 AM PDT
Station Date Time Temp (°F) RH (%) Dew Pt (°F) Wind Dir (°) Wind Spd (mph) Wind Gust (mph) Solar Rad (W/m2) Pressure (mb) Daily Min Temp (°F) Daily Max Temp (°F) Daily Max Wind (mph) Daily Rain (In) Yest MinT (°F) Yest MaxT (°F) Yest MaxGst (mph) Yest Precip (In) MinBV Day (V)
MWA Office 5/9/26 0630 50.1   3.4 57   2 35.6   4.2 N | 0 0.0   0.8 0.0   2.6 34   0 1,016.5   0.7 48.8   2.7 62.7   2.8 3.9   0.2 0.00 51.5 93.3 23.4 0.00 12.4   0.0
MWA OPS 5/9/26 0630 54.4   0.4 44   12 32.7   6.7 SSW | 197 3.5   1.2 5.9   2.0 44   7 1,014.5   1.6 52.9   1.1 60.0   0.7 7.0   0.9 0.00 53.9 90.4 24.1 0.00 12.8   0.0
LV-PS 5/9/26 0630 64.1   1.0 31   4 33.2   1.9 SW | 226 5.9   0.7 9.0   0.7 82   6 1,011.9   1.9 60.2   1.1 67.0   1.9 12.9   3.3 0.00 59.2 93.9 22.6 0.00 12.8   0.0
JV-PS 5/9/26 0630 67.6   0.7 27   3 32.4   2.2 WSW | 251 4.2   1.5 9.0   3.3 85   3 1,010.9   1.4 61.5   5.4 72.8   0.9 11.4   8.5 0.00 66.9 93.5 21.9 0.00 12.9   0.0
BDVWA 5/9/26 0630 67.3   3.8 18   1 22.6   1.3 W | 270 4.7   1.6 7.5   0.9 74   4 1,009.9   0.8 64.3   4.1 69.7   2.8 9.2   7.2 0.00 68.2 90.6 20.0 0.00 12.8   0.0
Newberry Springs 5/9/26 0630 66.8   1.4 36   6 39.0   5.0 NW | 311 6.5   2.0 9.9   4.6 83   6 1,011.4   0.6 66.4   0.7 74.2   6.2 24.3   4.4 0.00 67.1 98.9 28.7 0.00 12.9   0.0
Pinon Hills 5/9/26 0630 52.3   5.3 30   4 21.6   7.6 SW | 218 3.7   0.5 7.2   0.4 80   8 1,014.8   0.0 49.7   4.5 61.0   6.9 11.0   5.9 0.00 53.6 83.9 17.1 0.00 12.8   0.0
Helendale 5/9/26 0630 56.5   4.1 53   2 39.4   4.8 WSW | 255 4.8   0.1 6.6   1.1 81   9 1,013.4   0.7 52.3   7.8 66.0   4.1 8.6   4.6 0.00 60.0 95.4 25.0 0.00 12.7   0.0
Lenwood 5/9/26 0630 63.0   1.4 37   11 36.2   5.6 WSW | 250 5.1   2.4 7.5   3.5 72   7 1,012.3   1.6 56.5   4.9 67.7   1.0 8.6   1.5 0.00 61.4 98.2 23.2 0.00 12.4   0.4
Oak Hills 5/9/26 0615 58.1   1.9 44   10 36.3   6.9 SW | 223 5.1   0.7 6.1   0.4 36   5 1,013.2   1.4 54.2   2.2 60.4   1.2 9.9   4.2 0.00 56.4 80.0 21.7 0.00 13.0   0.0
Pipes Wash Canyon 5/9/26 0630 66.9   1.8 20   2 25.0   4.4 WSW | 251 2.4   0.7 4.2   2.2 101   5 1,009.3   2.2 61.7   1.4 69.7   0.6 8.6   5.9 0.00 63.1 86.2 21.3 0.00 12.9   0.0
Max     67.6 57 39.4 - 6.5 9.9 101 1,016.5 66.4 74.2 24.3 0.00 68.2 98.9 28.7 0.00 13.0
Avg     60.6 36 32.2 - 4.2 6.6 70 1,012.5 - - - - - - - - -
Min     50.1 18 21.6 - 0.0 0.0 34 1,009.3 48.8 60.0 3.9 0.00 51.5 80.0 17.1 0.00 12.4

Latest Observations

Map

15 Minute Data

Rainfall & ETo

MWA Stations

15 Minute Data | America/Los_Angeles
as of 5/9/26 6:39 AM PDT
Station Date Time Latest Rain (In) Daily Rain (In) Yest Precip (In) Month Precip (In) Season Precip (In) Daily ETo (in) Yest ETo (In) 7 Day ETo (in)
MWA Office 5/9/26 0630 0.00 0.00 0.00 0.00 4.30 0.000 0.29 1.63
MWA OPS 5/9/26 0630 0.00 0.00 0.00 0.00 9.32 0.001 0.30 1.64
LV-PS 5/9/26 0630 0.00 0.00 0.00 0.00 3.63 0.009 0.33 1.88
JV-PS 5/9/26 0630 0.00 0.00 0.00 0.02 6.39 0.007 0.36 1.91
BDVWA 5/9/26 0630 0.00 0.00 0.00 0.03 6.39 0.013 0.31 1.79
Newberry Springs 5/9/26 0630 0.00 0.00 0.00 0.00 2.70 0.020 0.41 2.13
Pinon Hills 5/9/26 0630 0.00 0.00 0.00 0.00 15.51 0.004 0.26 1.54
Helendale 5/9/26 0630 0.00 0.00 0.00 0.00 5.55 0.004 0.33 1.86
Lenwood 5/9/26 0630 0.00 0.00 0.00 0.00 4.24 0.002 0.33 1.94
Oak Hills 5/9/26 0615 0.00 0.00 0.00 0.00 14.72 0.005 0.26 1.38
Pipes Wash Canyon 5/9/26 0630 0.00 0.00 0.00 0.00 13.92 0.006 0.28 1.54
Max     0.00 0.00 0.00 0.03 15.51 0.020 0.41 2.13
Avg     0.00 - - - - - - -
Min     0.00 0.00 0.00 0.00 2.70 0.000 0.26 1.38